createdAt,value
2022-11-02T00:00:24.193Z,93.93
2022-11-02T00:02:51.799Z,93.71
2022-11-02T00:05:23.779Z,93.90
2022-11-02T00:07:52.091Z,94.07
2022-11-02T00:10:19.866Z,93.39
2022-11-02T00:12:47.914Z,92.75
2022-11-02T00:15:15.761Z,93.45
2022-11-02T00:17:50.041Z,93.55
2022-11-02T00:20:18.589Z,94.33
2022-11-02T00:22:47.933Z,95.30
2022-11-02T00:25:17.198Z,94.96
2022-11-02T00:27:44.816Z,95.62
2022-11-02T00:30:12.672Z,95.29
2022-11-02T00:32:40.206Z,95.34
2022-11-02T00:35:10.287Z,95.27
2022-11-02T00:37:38.007Z,95.58
2022-11-02T00:40:06.472Z,95.29
2022-11-02T00:42:33.998Z,95.62
2022-11-02T00:45:01.502Z,95.42
2022-11-02T00:47:29.021Z,95.72
2022-11-02T00:49:56.606Z,95.50
2022-11-02T00:52:26.096Z,96.11
2022-11-02T00:54:53.661Z,96.52
2022-11-02T00:57:21.300Z,96.52
2022-11-02T00:59:48.840Z,96.21
2022-11-02T01:02:16.737Z,96.23
2022-11-02T01:04:44.384Z,95.89
2022-11-02T01:07:13.494Z,95.77
2022-11-02T01:09:42.366Z,96.17
2022-11-02T01:12:09.887Z,96.36
2022-11-02T01:14:37.615Z,96.57
2022-11-02T01:17:05.714Z,97.08
2022-11-02T01:19:33.243Z,96.55
2022-11-02T01:22:00.809Z,96.67
2022-11-02T01:24:28.284Z,96.88
2022-11-02T01:26:57.201Z,97.14
2022-11-02T01:29:24.734Z,97.51
2022-11-02T01:31:53.592Z,97.43
2022-11-02T01:34:21.520Z,97.80
2022-11-02T01:36:49.151Z,97.74
2022-11-02T01:39:16.809Z,97.99
2022-11-02T01:41:44.291Z,97.58
2022-11-02T01:44:30.208Z,97.73
2022-11-02T01:47:00.809Z,98.08
2022-11-02T01:49:28.690Z,98.08
2022-11-02T01:51:59.301Z,97.63
2022-11-02T01:54:31.106Z,97.43
2022-11-02T01:57:02.618Z,97.76
2022-11-02T01:59:34.562Z,97.83
2022-11-02T02:02:02.731Z,97.45
2022-11-02T02:04:30.480Z,97.56
2022-11-02T02:06:59.408Z,97.76
2022-11-02T02:09:27.805Z,96.74
2022-11-02T02:11:55.301Z,96.81
2022-11-02T02:14:22.829Z,97.19
2022-11-02T02:17:00.451Z,96.75
2022-11-02T02:19:39.578Z,97.04
2022-11-02T02:22:21.176Z,97.27
2022-11-02T02:24:59.163Z,96.89
2022-11-02T02:27:31.457Z,97.42
2022-11-02T02:30:05.671Z,97.03
2022-11-02T02:32:39.784Z,96.69
2022-11-02T02:35:14.307Z,96.89
2022-11-02T02:37:47.678Z,97.31
2022-11-02T02:40:18.131Z,97.02
2022-11-02T02:42:48.090Z,96.71
2022-11-02T02:45:20.341Z,96.96
2022-11-02T02:47:50.865Z,97.78
2022-11-02T02:50:20.858Z,97.41
2022-11-02T02:52:51.052Z,97.01
2022-11-02T02:55:20.201Z,97.34
2022-11-02T02:57:48.221Z,97.42
2022-11-02T03:00:18.567Z,97.55
2022-11-02T03:03:00.658Z,97.55
2022-11-02T03:05:30.660Z,96.99
2022-11-02T03:08:02.886Z,96.99
2022-11-02T03:10:34.414Z,96.90
2022-11-02T03:13:11.162Z,95.79
2022-11-02T03:15:42.774Z,96.50
2022-11-02T03:18:17.445Z,96.35
2022-11-02T03:20:55.241Z,96.40
2022-11-02T03:23:27.556Z,96.67
2022-11-02T03:26:00.837Z,96.01
2022-11-02T03:28:41.359Z,95.97
2022-11-02T03:31:13.691Z,95.74
2022-11-02T03:33:46.116Z,95.38
2022-11-02T03:36:15.755Z,95.20
2022-11-02T03:38:45.847Z,95.41
2022-11-02T03:41:14.244Z,95.65
2022-11-02T03:43:42.491Z,95.25
2022-11-02T03:46:12.258Z,95.29
2022-11-02T03:48:43.067Z,95.27
2022-11-02T03:51:13.767Z,95.19
2022-11-02T03:53:45.769Z,94.46
2022-11-02T03:56:16.680Z,94.56
2022-11-02T03:58:44.261Z,94.94
2022-11-02T04:01:13.844Z,94.70
2022-11-02T04:03:45.586Z,94.40
2022-11-02T04:06:13.510Z,94.16
2022-11-02T04:08:43.849Z,93.51
2022-11-02T04:11:29.617Z,93.88
2022-11-02T04:14:14.949Z,94.32
2022-11-02T04:16:44.204Z,94.19
2022-11-02T04:19:29.695Z,94.26
2022-11-02T04:22:15.550Z,94.95
2022-11-02T04:25:00.621Z,94.27
2022-11-02T04:27:29.473Z,93.74
2022-11-02T04:29:57.060Z,94.38
2022-11-02T04:32:43.371Z,94.50
2022-11-02T04:35:11.110Z,94.27
2022-11-02T04:37:59.762Z,94.38
2022-11-02T04:40:27.496Z,94.23
2022-11-02T04:42:55.223Z,94.24
2022-11-02T04:45:22.765Z,95.11
2022-11-02T04:47:51.712Z,94.86
2022-11-02T04:50:19.233Z,94.83
2022-11-02T04:52:46.758Z,94.44
2022-11-02T04:55:14.241Z,94.80
2022-11-02T04:57:45.741Z,93.58
2022-11-02T05:00:15.439Z,93.87
2022-11-02T05:02:44.114Z,94.00
2022-11-02T05:05:13.059Z,94.50
2022-11-02T05:07:40.729Z,93.67
2022-11-02T05:10:08.810Z,93.37
2022-11-02T05:12:36.409Z,93.61
2022-11-02T05:15:04.804Z,93.05
2022-11-02T05:17:32.409Z,93.11
2022-11-02T05:19:59.920Z,93.40
2022-11-02T05:22:28.801Z,93.23
2022-11-02T05:24:56.332Z,93.62
2022-11-02T05:27:23.800Z,93.93
2022-11-02T05:29:51.352Z,94.30
2022-11-02T05:32:18.879Z,94.95
2022-11-02T05:34:46.405Z,95.24
2022-11-02T05:37:13.936Z,95.67
2022-11-02T05:39:45.113Z,96.15
2022-11-02T05:42:15.380Z,96.15
2022-11-02T05:44:42.922Z,96.39
2022-11-02T05:47:10.420Z,96.39
2022-11-02T05:49:37.920Z,96.04
2022-11-02T05:52:05.818Z,95.63
2022-11-02T05:54:33.358Z,95.25
2022-11-02T05:57:02.267Z,95.31
2022-11-02T05:59:29.778Z,95.65
2022-11-02T06:01:57.372Z,95.90
2022-11-02T06:04:25.033Z,95.89
2022-11-02T06:06:52.583Z,95.22
2022-11-02T06:09:20.092Z,94.61
2022-11-02T06:11:47.600Z,94.88
2022-11-02T06:14:16.460Z,95.16
2022-11-02T06:16:43.960Z,94.58
2022-11-02T06:19:11.509Z,94.49
2022-11-02T06:21:41.052Z,94.69
2022-11-02T06:24:10.705Z,95.09
2022-11-02T06:26:38.228Z,95.00
2022-11-02T06:29:05.916Z,95.12
2022-11-02T06:31:34.754Z,95.39
2022-11-02T06:34:02.318Z,95.68
2022-11-02T06:36:29.801Z,95.60
2022-11-02T06:38:57.355Z,95.60
2022-11-02T06:41:24.830Z,95.68
2022-11-02T06:43:52.476Z,95.70
2022-11-02T06:46:19.999Z,95.84
2022-11-02T06:48:49.550Z,96.02
2022-11-02T06:51:17.140Z,95.97
2022-11-02T06:53:44.646Z,96.26
2022-11-02T06:56:12.932Z,96.13
2022-11-02T06:58:40.496Z,96.38
2022-11-02T07:01:09.396Z,96.05
2022-11-02T07:03:37.178Z,96.42
2022-11-02T07:06:11.079Z,96.54
2022-11-02T07:08:40.360Z,96.07
2022-11-02T07:11:07.864Z,95.56
2022-11-02T07:13:35.349Z,95.58
2022-11-02T07:16:02.896Z,95.73
2022-11-02T07:18:30.374Z,95.94
2022-11-02T07:20:59.779Z,95.95
2022-11-02T07:23:28.693Z,95.79
2022-11-02T07:25:56.183Z,95.72
2022-11-02T07:28:23.684Z,96.23
2022-11-02T07:30:54.971Z,95.86
2022-11-02T07:33:22.495Z,95.19
2022-11-02T07:35:49.970Z,94.06
2022-11-02T07:38:17.487Z,94.08
2022-11-02T07:40:49.714Z,94.83
2022-11-02T07:43:20.171Z,94.37
2022-11-02T07:45:47.757Z,94.12
2022-11-02T07:48:15.408Z,94.20
2022-11-02T07:50:42.989Z,94.22
2022-11-02T07:53:10.832Z,93.87
2022-11-02T07:55:38.388Z,94.13
2022-11-02T07:58:10.963Z,94.48
2022-11-02T08:00:40.915Z,94.21
2022-11-02T08:03:10.821Z,94.96
2022-11-02T08:05:40.553Z,94.85
2022-11-02T08:08:09.895Z,95.13
2022-11-02T08:10:40.356Z,94.76
2022-11-02T08:13:10.052Z,94.72
2022-11-02T08:15:37.647Z,94.96
2022-11-02T08:18:07.574Z,95.04
2022-11-02T08:20:36.539Z,95.18
2022-11-02T08:23:04.829Z,94.96
2022-11-02T08:25:32.753Z,95.05
2022-11-02T08:28:01.375Z,95.08
2022-11-02T08:30:31.541Z,95.08
2022-11-02T08:33:03.672Z,95.26
2022-11-02T08:35:31.211Z,94.53
2022-11-02T08:37:59.905Z,94.41
2022-11-02T08:40:27.803Z,93.84
2022-11-02T08:42:58.630Z,92.33
2022-11-02T08:45:26.302Z,92.86
2022-11-02T08:47:55.539Z,92.50
2022-11-02T08:50:23.651Z,91.10
2022-11-02T08:52:51.214Z,90.72
2022-11-02T08:55:19.241Z,90.61
2022-11-02T08:57:47.470Z,90.81
2022-11-02T09:00:15.721Z,90.66
2022-11-02T09:02:43.976Z,90.48
2022-11-02T09:05:13.039Z,89.51
2022-11-02T09:07:40.522Z,88.58
2022-11-02T09:10:09.484Z,88.46
2022-11-02T09:12:36.966Z,87.52
2022-11-02T09:15:05.106Z,86.89
2022-11-02T09:17:32.624Z,86.00
2022-11-02T09:20:00.122Z,84.38
2022-11-02T09:22:28.989Z,83.52
2022-11-02T09:24:56.496Z,84.18
2022-11-02T09:27:24.139Z,82.76
2022-11-02T09:29:51.666Z,82.10
2022-11-02T09:32:19.137Z,81.44
2022-11-02T09:34:47.354Z,78.68
2022-11-02T09:37:14.902Z,78.39
2022-11-02T09:39:43.810Z,78.60
2022-11-02T09:42:14.802Z,77.43
2022-11-02T09:44:48.554Z,77.24
2022-11-02T09:50:04.999Z,77.12
2022-11-02T09:52:35.605Z,76.95
2022-11-02T09:55:06.347Z,76.20
2022-11-02T09:57:34.628Z,75.38
2022-11-02T10:00:02.419Z,76.08
2022-11-02T10:02:42.575Z,76.71
2022-11-02T10:05:19.776Z,76.46
2022-11-02T10:08:01.722Z,75.95
2022-11-02T10:10:35.759Z,73.29
2022-11-02T10:13:12.475Z,73.04
2022-11-02T10:15:42.604Z,73.26
2022-11-02T10:18:15.154Z,72.65
2022-11-02T10:20:46.245Z,71.74
2022-11-02T10:23:22.358Z,71.48
2022-11-02T10:25:51.462Z,71.74
2022-11-02T10:28:21.502Z,71.58
2022-11-02T10:30:49.097Z,71.75
2022-11-02T10:33:19.333Z,69.69
2022-11-02T10:36:16.406Z,68.97
2022-11-02T10:38:46.081Z,70.49
2022-11-02T10:41:28.160Z,68.93
2022-11-02T10:44:09.969Z,68.46
2022-11-02T10:46:49.400Z,68.73
2022-11-02T10:49:23.991Z,68.58
2022-11-02T10:51:51.536Z,68.73
2022-11-02T10:54:23.995Z,69.96
2022-11-02T10:56:59.739Z,69.01
2022-11-02T10:59:27.328Z,69.65
2022-11-02T11:02:06.958Z,69.48
2022-11-02T11:04:35.511Z,68.79
2022-11-02T11:07:07.082Z,69.22
2022-11-02T11:09:46.447Z,67.41
2022-11-02T11:12:22.169Z,66.81
2022-11-02T11:20:34.177Z,63.69
2022-11-02T11:23:19.533Z,64.65
2022-11-02T11:25:58.818Z,62.16
2022-11-02T11:28:30.315Z,62.55
2022-11-02T11:31:06.946Z,63.34
2022-11-02T11:33:35.155Z,62.88
2022-11-02T11:36:02.724Z,62.18
2022-11-02T11:38:30.200Z,62.93
2022-11-02T11:40:59.063Z,62.20
2022-11-02T11:43:29.505Z,61.49
2022-11-02T11:46:04.788Z,62.03
2022-11-02T11:48:37.505Z,62.03
2022-11-02T11:51:06.157Z,62.81
2022-11-02T11:53:35.406Z,62.27
2022-11-02T11:56:02.948Z,62.66
2022-11-02T11:58:32.679Z,63.85
2022-11-02T12:01:10.414Z,64.48
2022-11-02T12:03:51.582Z,64.17
2022-11-02T12:06:25.488Z,62.83
2022-11-02T12:09:01.581Z,61.19
2022-11-02T12:11:40.457Z,60.50
2022-11-02T12:14:17.097Z,62.82
2022-11-02T12:16:56.454Z,60.97
2022-11-02T12:19:34.196Z,59.67
2022-11-02T12:22:06.692Z,61.68
2022-11-02T12:24:44.422Z,61.80
2022-11-02T12:27:20.747Z,61.59
2022-11-02T12:30:15.358Z,60.96
2022-11-02T12:32:53.865Z,61.23
2022-11-02T12:35:30.088Z,61.40
2022-11-02T12:38:14.856Z,60.39
2022-11-02T12:40:52.705Z,60.28
2022-11-02T12:43:33.987Z,61.35
2022-11-02T12:46:05.376Z,61.30
2022-11-02T12:48:50.922Z,61.61
2022-11-02T12:51:21.003Z,61.45
2022-11-02T12:53:50.499Z,61.52
2022-11-02T12:56:21.766Z,59.80
2022-11-02T12:58:49.506Z,60.17
2022-11-02T13:01:23.255Z,60.73
2022-11-02T13:03:54.224Z,60.04
2022-11-02T13:06:25.464Z,60.28
2022-11-02T13:08:55.831Z,60.34
2022-11-02T13:11:26.572Z,60.45
2022-11-02T13:13:56.747Z,60.72
2022-11-02T13:16:34.023Z,60.53
2022-11-02T13:19:02.617Z,60.62
2022-11-02T13:21:35.727Z,59.21
2022-11-02T13:24:07.492Z,59.87
2022-11-02T13:26:37.825Z,60.73
2022-11-02T13:29:08.738Z,60.97
2022-11-02T13:31:40.380Z,59.20
2022-11-02T13:34:12.715Z,59.73
2022-11-02T13:36:40.748Z,60.14
2022-11-02T13:39:11.350Z,60.40
2022-11-02T13:42:07.370Z,60.01
2022-11-02T13:44:58.687Z,59.80
2022-11-02T13:47:42.371Z,59.95
2022-11-02T13:50:13.135Z,59.75
2022-11-02T13:52:43.079Z,58.73
2022-11-02T13:55:18.798Z,59.93
2022-11-02T13:57:48.795Z,58.72
2022-11-02T14:00:30.450Z,59.73
2022-11-02T14:03:03.414Z,59.95
2022-11-02T14:05:33.111Z,57.70
2022-11-02T14:08:01.802Z,57.85
2022-11-02T14:10:29.935Z,60.25
2022-11-02T14:12:57.539Z,57.24
2022-11-02T14:15:57.769Z,57.33
2022-11-02T14:18:33.338Z,58.03
2022-11-02T14:21:41.755Z,58.78
2022-11-02T14:24:48.176Z,58.87
2022-11-02T14:27:29.332Z,58.94
2022-11-02T14:29:57.215Z,58.46
2022-11-02T14:32:40.940Z,59.98
2022-11-02T14:35:42.950Z,61.17
2022-11-02T14:38:40.964Z,59.40
2022-11-02T14:41:19.571Z,60.42
2022-11-02T14:43:59.516Z,61.73
2022-11-02T14:46:39.799Z,62.19
2022-11-02T14:49:17.239Z,62.48
2022-11-02T14:51:47.407Z,63.31
2022-11-02T14:54:17.543Z,62.14
2022-11-02T14:56:51.480Z,61.86
2022-11-02T14:59:21.019Z,61.63
2022-11-02T15:01:52.922Z,61.27
2022-11-02T15:04:20.465Z,61.62
2022-11-02T15:06:54.956Z,61.44
2022-11-02T15:09:54.133Z,62.01
2022-11-02T15:12:37.266Z,62.30
2022-11-02T15:15:32.558Z,62.62
2022-11-02T15:18:14.807Z,61.90
2022-11-02T15:20:46.219Z,61.53
2022-11-02T15:23:29.942Z,61.22
2022-11-02T15:25:59.808Z,61.18
2022-11-02T15:28:30.293Z,61.71
2022-11-02T15:31:00.469Z,62.49
2022-11-02T15:33:35.931Z,63.11
2022-11-02T15:36:05.630Z,63.34
2022-11-02T15:38:39.616Z,63.22
2022-11-02T15:41:18.117Z,64.08
2022-11-02T15:44:38.580Z,64.32
2022-11-02T15:47:13.802Z,64.59
2022-11-02T15:49:57.743Z,64.23
2022-11-02T15:52:46.428Z,64.75
2022-11-02T15:55:32.872Z,65.74
2022-11-02T15:58:06.790Z,65.66
2022-11-02T16:00:34.608Z,65.25
2022-11-02T16:03:03.910Z,65.78
2022-11-02T16:05:33.575Z,66.07
2022-11-02T16:08:17.414Z,67.54
2022-11-02T16:10:48.910Z,68.09
2022-11-02T16:13:17.987Z,68.63
2022-11-02T16:15:46.285Z,69.14
2022-11-02T16:18:27.463Z,70.02
2022-11-02T16:20:56.548Z,69.46
2022-11-02T16:23:25.911Z,68.76
2022-11-02T16:25:56.181Z,70.52
2022-11-02T16:28:25.375Z,71.53
2022-11-02T16:31:00.722Z,72.21
2022-11-02T16:33:31.868Z,72.96
2022-11-02T16:36:00.108Z,73.16
2022-11-02T16:38:28.507Z,74.13
2022-11-02T16:40:57.487Z,74.48
2022-11-02T16:43:26.043Z,74.68
2022-11-02T16:46:00.601Z,75.01
2022-11-02T16:48:29.648Z,75.34
2022-11-02T16:51:13.441Z,75.55
2022-11-02T16:53:42.528Z,76.11
2022-11-02T16:56:35.627Z,77.19
2022-11-02T16:59:05.610Z,77.78
2022-11-02T17:01:38.729Z,77.38
2022-11-02T17:04:17.326Z,77.96
2022-11-02T17:06:45.418Z,77.77
2022-11-02T17:09:22.612Z,77.80
2022-11-02T17:11:52.349Z,78.14
2022-11-02T17:14:20.759Z,77.92
2022-11-02T17:17:04.203Z,79.23
2022-11-02T17:19:54.832Z,79.39
2022-11-02T17:22:26.729Z,80.00
2022-11-02T17:25:05.952Z,79.70
2022-11-02T17:27:39.258Z,79.04
2022-11-02T17:30:43.688Z,80.13
2022-11-02T17:33:22.262Z,81.62
2022-11-02T17:35:51.176Z,81.31
2022-11-02T17:38:19.646Z,81.25
2022-11-02T17:40:51.988Z,81.67
2022-11-02T17:43:20.502Z,80.78
2022-11-02T17:45:54.928Z,80.78
2022-11-02T17:48:22.423Z,81.60
2022-11-02T17:50:53.720Z,81.73
2022-11-02T17:53:21.378Z,81.30
2022-11-02T17:55:48.899Z,81.51
2022-11-02T17:58:16.942Z,81.35
2022-11-02T18:00:45.825Z,81.99
2022-11-02T18:03:16.734Z,82.50
2022-11-02T18:05:48.333Z,83.37
2022-11-02T18:08:17.950Z,83.02
2022-11-02T18:10:46.861Z,83.16
2022-11-02T18:13:16.065Z,82.72
2022-11-02T18:15:43.969Z,82.05
2022-11-02T18:18:12.840Z,82.26
2022-11-02T18:20:41.990Z,82.56
2022-11-02T18:23:15.420Z,83.14
2022-11-02T18:25:43.066Z,84.13
2022-11-02T18:28:10.584Z,84.61
2022-11-02T18:30:38.116Z,85.01
2022-11-02T18:33:08.383Z,85.22
2022-11-02T18:35:42.084Z,85.30
2022-11-02T18:38:09.621Z,85.71
2022-11-02T18:40:37.154Z,85.47
2022-11-02T18:43:05.208Z,85.53
2022-11-02T18:45:33.124Z,86.01
2022-11-02T18:48:00.695Z,86.42
2022-11-02T18:50:28.306Z,86.56
2022-11-02T18:52:57.236Z,87.55
2022-11-02T18:55:24.895Z,87.51
2022-11-02T18:57:52.681Z,87.90
2022-11-02T19:00:20.805Z,87.49
2022-11-02T19:02:48.534Z,87.41
2022-11-02T19:05:33.874Z,87.44
2022-11-02T19:08:21.310Z,87.30
2022-11-02T19:10:51.878Z,87.80
2022-11-02T19:13:20.716Z,88.14
2022-11-02T19:15:48.428Z,88.33
2022-11-02T19:18:16.097Z,88.97
2022-11-02T19:20:45.041Z,89.31
2022-11-02T19:23:14.681Z,88.79
2022-11-02T19:25:56.789Z,89.17
2022-11-02T19:28:24.606Z,88.85
2022-11-02T19:30:52.405Z,87.78
2022-11-02T19:33:20.236Z,88.74
2022-11-02T19:35:55.562Z,89.72
2022-11-02T19:38:28.389Z,90.35
2022-11-02T19:41:02.528Z,91.47
2022-11-02T19:43:32.948Z,91.93
2022-11-02T19:46:04.470Z,92.04
2022-11-02T19:48:35.426Z,91.91
2022-11-02T19:51:07.857Z,91.28
2022-11-02T19:53:37.628Z,92.12
2022-11-02T19:56:06.370Z,92.53
2022-11-02T19:58:34.149Z,92.75
2022-11-02T20:01:06.620Z,91.93
2022-11-02T20:03:37.598Z,91.90
2022-11-02T20:06:07.174Z,92.79
2022-11-02T20:08:36.547Z,92.72
2022-11-02T20:11:05.800Z,92.43
2022-11-02T20:13:34.916Z,92.21
2022-11-02T20:16:02.658Z,92.64
2022-11-02T20:18:30.597Z,91.91
2022-11-02T20:21:03.781Z,92.59
2022-11-02T20:23:31.455Z,93.12
2022-11-02T20:26:05.151Z,92.55
2022-11-02T20:28:37.600Z,92.51
2022-11-02T20:31:08.134Z,93.51
2022-11-02T20:33:39.040Z,93.14
2022-11-02T20:36:08.009Z,93.71
2022-11-02T20:38:37.763Z,92.96
2022-11-02T20:41:09.811Z,92.60
2022-11-02T20:43:37.977Z,92.83
2022-11-02T20:46:36.077Z,92.96
2022-11-02T20:49:13.926Z,92.62
2022-11-02T20:51:51.213Z,92.37
2022-11-02T20:54:19.628Z,92.40
2022-11-02T20:56:49.493Z,92.39
2022-11-02T20:59:17.267Z,92.35
2022-11-02T21:01:45.220Z,92.37
2022-11-02T21:04:19.807Z,93.08
2022-11-02T21:06:54.527Z,92.94
2022-11-02T21:09:29.703Z,93.00
2022-11-02T21:12:16.161Z,93.61
2022-11-02T21:14:43.759Z,93.63
2022-11-02T21:17:27.538Z,93.79
2022-11-02T21:20:28.545Z,93.28
2022-11-02T21:22:51.188Z,93.03
2022-11-02T21:25:21.208Z,93.87
2022-11-02T21:27:51.938Z,93.71
2022-11-02T21:30:21.470Z,93.88
2022-11-02T21:32:53.046Z,93.40
2022-11-02T21:35:21.430Z,93.69
2022-11-02T21:37:49.122Z,93.27
2022-11-02T21:40:17.425Z,94.34
2022-11-02T21:42:45.141Z,93.75
2022-11-02T21:45:18.562Z,94.04
2022-11-02T21:47:46.417Z,94.08
2022-11-02T21:50:14.263Z,93.75
2022-11-02T21:52:45.051Z,94.69
2022-11-02T21:55:14.191Z,94.57
2022-11-02T21:57:42.264Z,94.67
2022-11-02T22:00:11.149Z,94.59
2022-11-02T22:02:39.516Z,94.41
2022-11-02T22:05:30.665Z,93.99
2022-11-02T22:08:15.824Z,94.03
2022-11-02T22:10:45.577Z,94.39
2022-11-02T22:13:27.108Z,94.29
2022-11-02T22:15:54.873Z,94.86
2022-11-02T22:18:23.926Z,94.96
2022-11-02T22:20:56.884Z,94.73
2022-11-02T22:23:28.779Z,95.16
2022-11-02T22:26:04.496Z,94.85
2022-11-02T22:28:34.192Z,94.82
2022-11-02T22:31:06.089Z,94.80
2022-11-02T22:33:35.263Z,94.15
2022-11-02T22:36:05.182Z,94.91
2022-11-02T22:38:50.408Z,91.93
2022-11-02T22:41:19.417Z,92.88
2022-11-02T22:43:47.924Z,92.95
2022-11-02T22:46:17.631Z,93.82
2022-11-02T22:48:46.684Z,94.49
2022-11-02T22:51:14.636Z,94.36
2022-11-02T22:53:46.347Z,94.61
2022-11-02T22:56:21.703Z,94.33
2022-11-02T22:58:50.523Z,94.64
2022-11-02T23:01:23.731Z,94.68
2022-11-02T23:03:56.468Z,94.72
2022-11-02T23:06:25.030Z,95.40
2022-11-02T23:08:57.587Z,94.47
2022-11-02T23:11:27.582Z,94.53
2022-11-02T23:13:56.858Z,93.86
2022-11-02T23:16:25.849Z,93.97
2022-11-02T23:19:27.272Z,94.51
2022-11-02T23:22:15.011Z,95.19
2022-11-02T23:25:01.542Z,95.41
2022-11-02T23:27:29.809Z,94.51
2022-11-02T23:30:14.933Z,94.82
2022-11-02T23:32:42.446Z,94.52
2022-11-02T23:35:29.071Z,94.73
2022-11-02T23:38:04.258Z,94.62
2022-11-02T23:40:31.367Z,94.50
2022-11-02T23:42:58.854Z,95.80
2022-11-02T23:45:26.370Z,95.64
2022-11-02T23:48:01.246Z,95.72
2022-11-02T23:50:50.113Z,96.25
2022-11-02T23:53:36.559Z,96.12
2022-11-02T23:56:22.322Z,96.56
2022-11-02T23:59:06.362Z,96.82
